Time;durP1;ratioP1;P1;durP2;ratioP2;P2;SDS_P1;SDS_P2;PMS_P1;PMS_P2;Temp;Humidity;BMP_temperature;BMP_pressure;BME280_temperature;BME280_humidity;BME280_pressure;Samples;Min_cycle;Max_cycle;Signal;HPM_P1;HPM_P2
2021/09/05 00:02:23;;;;;;;27.40;13.80;;;;;;;16.04;71.89;100836.00;125258;1099;104137;-77
2021/09/05 00:04:55;;;;;;;27.20;14.70;;;;;;;16.02;72.77;100836.82;125268;1099;104289;-78
2021/09/05 00:07:25;;;;;;;25.97;14.30;;;;;;;15.99;72.89;100840.33;125255;1099;104137;-78
2021/09/05 00:09:56;;;;;;;30.00;15.03;;;;;;;15.95;72.61;100834.05;125241;1099;104178;-79
2021/09/05 00:12:27;;;;;;;28.83;13.43;;;;;;;15.93;72.01;100838.44;125183;1099;104207;-80
2021/09/05 00:14:58;;;;;;;27.67;15.20;;;;;;;15.91;72.15;100839.27;125274;1099;104217;-78
2021/09/05 00:17:31;;;;;;;25.43;14.87;;;;;;;15.89;72.70;100847.17;125117;1099;104820;-78
2021/09/05 00:20:02;;;;;;;25.47;13.57;;;;;;;15.87;72.71;100843.61;125265;1099;104560;-79
2021/09/05 00:22:33;;;;;;;26.37;13.80;;;;;;;15.86;72.73;100841.81;125217;1099;104177;-79
2021/09/05 00:25:07;;;;;;;27.90;13.77;;;;;;;15.86;72.95;100844.46;125209;1099;104195;-78
2021/09/05 00:27:39;;;;;;;25.40;14.43;;;;;;;15.89;72.66;100847.17;125184;1099;104150;-78
2021/09/05 00:30:11;;;;;;;25.15;12.70;;;;;;;15.89;73.50;100847.17;125277;1099;104312;-78
2021/09/05 00:32:42;;;;;;;25.47;13.33;;;;;;;15.89;73.16;100847.17;125265;1099;104163;-78
2021/09/05 00:35:14;;;;;;;26.77;12.80;;;;;;;15.93;73.53;100853.44;125181;1099;104226;-79
2021/09/05 00:37:45;;;;;;;25.67;13.70;;;;;;;15.99;73.78;100842.97;125230;1099;104156;-77
2021/09/05 00:40:16;;;;;;;25.77;14.03;;;;;;;16.05;73.59;100843.09;125256;1099;104722;-78
2021/09/05 00:42:47;;;;;;;25.40;13.23;;;;;;;16.12;73.64;100839.67;125267;1099;104322;-77
2021/09/05 00:45:18;;;;;;;28.90;14.30;;;;;;;16.18;72.90;100845.08;125192;1098;104223;-78
2021/09/05 00:47:50;;;;;;;25.37;13.37;;;;;;;16.15;73.10;100849.44;125242;1099;104152;-78
2021/09/05 00:50:22;;;;;;;27.23;14.23;;;;;;;16.09;73.26;100847.55;125187;1099;104155;-79
2021/09/05 00:52:53;;;;;;;26.77;13.40;;;;;;;16.06;73.73;100855.44;125287;1099;104181;-77
2021/09/05 00:55:25;;;;;;;25.13;13.23;;;;;;;16.05;73.15;100852.76;125222;1099;104248;-77
2021/09/05 00:58:07;;;;;;;26.50;13.37;;;;;;;16.05;74.32;100851.03;125147;1099;104200;-77
2021/09/05 01:00:38;;;;;;;25.47;13.30;;;;;;;16.02;73.95;100858.91;125216;1099;104727;-78
2021/09/05 01:03:10;;;;;;;24.20;12.53;;;;;;;15.97;74.26;100863.20;125234;1099;104242;-78
2021/09/05 01:05:42;;;;;;;23.87;12.60;;;;;;;15.93;73.93;100861.38;125195;1099;104191;-79
2021/09/05 01:08:15;;;;;;;26.63;13.47;;;;;;;15.90;74.52;100866.61;125204;1099;104153;-79
2021/09/05 01:10:47;;;;;;;24.87;13.17;;;;;;;15.88;73.89;100866.58;125178;1099;104175;-78
2021/09/05 01:13:18;;;;;;;26.70;13.30;;;;;;;15.86;73.86;100870.05;125249;1099;104153;-78
2021/09/05 01:15:50;;;;;;;23.87;12.87;;;;;;;15.84;73.86;100869.12;125250;1099;101867;-77
2021/09/05 01:18:27;;;;;;;23.30;12.63;;;;;;;15.81;74.52;100869.95;125167;1099;104320;-79
2021/09/05 01:21:14;;;;;;;24.27;12.63;;;;;;;15.77;75.14;100865.48;125215;1098;104717;-78
2021/09/05 01:23:56;;;;;;;26.10;12.40;;;;;;;15.72;75.16;100865.35;125209;1099;104153;-78
2021/09/05 01:26:49;;;;;;;25.77;12.57;;;;;;;15.69;75.79;100874.95;125235;1099;104287;-77
2021/09/05 01:29:39;;;;;;;27.67;13.00;;;;;;;15.65;74.97;100868.72;125239;1099;105620;-77
2021/09/05 01:32:30;;;;;;;22.53;12.20;;;;;;;15.60;75.02;100883.61;125286;1099;104277;-79
2021/09/05 01:35:21;;;;;;;23.83;12.03;;;;;;;15.58;76.01;100887.95;125142;1102;104310;-78
2021/09/05 01:38:06;;;;;;;24.33;12.77;;;;;;;15.56;75.53;100884.39;125231;1099;104169;-78
2021/09/05 01:40:56;;;;;;;25.23;12.90;;;;;;;15.57;76.00;100886.19;125164;1099;110490;-78
2021/09/05 01:43:46;;;;;;;25.80;13.37;;;;;;;15.58;75.58;100885.31;125272;1099;104192;-79
2021/09/05 01:46:36;;;;;;;23.97;12.27;;;;;;;15.58;75.51;100883.58;125266;1099;105351;-78
2021/09/05 01:49:28;;;;;;;23.73;12.27;;;;;;;15.57;76.35;100894.13;125218;1099;104331;-78
2021/09/05 01:52:17;;;;;;;24.97;12.50;;;;;;;15.54;75.96;100892.30;125194;1099;104175;-78
2021/09/05 01:55:06;;;;;;;26.50;13.40;;;;;;;15.50;77.38;100895.72;125240;1099;104143;-77
2021/09/05 01:57:58;;;;;;;23.03;12.67;;;;;;;15.42;77.34;100898.20;125203;1099;104152;-77
2021/09/05 02:00:47;;;;;;;23.10;12.93;;;;;;;15.37;77.29;100901.62;125241;1099;104302;-79
2021/09/05 02:03:23;;;;;;;25.10;12.93;;;;;;;15.36;77.48;100903.34;126270;1099;104153;-78
2021/09/05 02:06:01;;;;;;;24.93;13.53;;;;;;;15.34;77.52;100899.78;126337;1099;104165;-78
2021/09/05 02:08:46;;;;;;;24.37;13.33;;;;;;;15.34;76.68;100896.26;126353;1099;104181;-78
2021/09/05 02:11:34;;;;;;;23.53;13.03;;;;;;;15.32;76.37;100904.16;126384;1099;104209;-79
2021/09/05 02:14:24;;;;;;;25.10;12.63;;;;;;;15.32;76.76;100896.22;126326;1099;104472;-78
2021/09/05 02:17:10;;;;;;;22.87;12.70;;;;;;;15.34;78.18;100904.19;126329;1099;104137;-77
2021/09/05 02:20:01;;;;;;;26.20;13.70;;;;;;;15.32;77.24;100895.31;126263;1099;104216;-78
2021/09/05 02:22:47;;;;;;;23.77;13.20;;;;;;;15.32;77.94;100905.88;126353;1099;104249;-79
2021/09/05 02:25:35;;;;;;;25.97;13.70;;;;;;;15.34;77.90;100905.07;126380;1098;104150;-77
2021/09/05 02:28:18;;;;;;;25.03;13.57;;;;;;;15.32;78.09;100898.87;126285;1099;104244;-78
2021/09/05 02:31:07;;;;;;;24.60;13.00;;;;;;;15.31;77.23;100904.13;126286;1099;104354;-77
2021/09/05 02:33:55;;;;;;;21.90;11.93;;;;;;;15.35;78.01;100898.02;126335;1099;104262;-78
2021/09/05 02:36:42;;;;;;;22.83;12.10;;;;;;;15.36;77.25;100898.05;126315;1099;104179;-78
2021/09/05 02:39:34;;;;;;;21.33;12.07;;;;;;;15.40;77.85;100904.33;126340;1098;104249;-78
2021/09/05 02:42:24;;;;;;;25.30;12.87;;;;;;;15.44;76.97;100909.72;126318;1099;118911;-77
2021/09/05 02:45:07;;;;;;;23.03;13.00;;;;;;;15.48;77.49;100905.38;126270;1098;104217;-77
2021/09/05 02:47:56;;;;;;;24.73;12.77;;;;;;;15.47;78.42;100911.52;126319;1099;104149;-77
2021/09/05 02:50:40;;;;;;;25.63;12.90;;;;;;;15.49;77.32;100922.13;126286;1099;104242;-78
2021/09/05 02:53:25;;;;;;;22.93;12.50;;;;;;;15.50;78.14;100916.00;126358;1099;104152;-78
2021/09/05 02:56:16;;;;;;;25.03;12.43;;;;;;;15.48;78.50;100918.61;126357;1099;104287;-78
2021/09/05 02:59:02;;;;;;;24.80;12.27;;;;;;;15.44;78.30;100917.66;126303;1099;104708;-78
2021/09/05 03:01:45;;;;;;;25.67;12.90;;;;;;;15.41;78.70;100920.23;126295;1099;104232;-78
2021/09/05 03:04:26;;;;;;;24.60;12.30;;;;;;;15.40;78.03;100917.55;126371;1099;104197;-78
2021/09/05 03:07:16;;;;;;;23.97;12.00;;;;;;;15.41;78.53;100914.94;126374;1097;104134;-78
2021/09/05 03:10:07;;;;;;;22.77;12.07;;;;;;;15.40;78.50;100915.79;126345;1099;104238;-78
2021/09/05 03:12:59;;;;;;;22.17;11.90;;;;;;;15.39;78.73;100921.92;126255;1099;104399;-78
2021/09/05 03:15:46;;;;;;;22.80;12.20;;;;;;;15.36;78.69;100919.21;126342;1098;104143;-79
2021/09/05 03:18:37;;;;;;;22.63;11.20;;;;;;;15.36;77.95;100908.63;126295;1099;104136;-79
2021/09/05 03:21:29;;;;;;;24.57;11.73;;;;;;;15.36;78.41;100923.62;126263;1099;104149;-79
2021/09/05 03:24:16;;;;;;;23.57;11.83;;;;;;;15.35;79.04;100932.39;126349;1098;104152;-79
2021/09/05 03:27:07;;;;;;;22.90;11.93;;;;;;;15.32;77.80;100932.32;126333;1099;104246;-78
2021/09/05 03:29:56;;;;;;;24.90;11.80;;;;;;;15.30;77.92;100934.93;126338;1099;104188;-78
2021/09/05 03:32:45;;;;;;;22.07;11.53;;;;;;;15.30;78.87;100931.41;126300;1099;105642;-80
2021/09/05 03:35:34;;;;;;;23.55;11.20;;;;;;;15.29;78.59;100933.17;126346;1099;104194;-78
2021/09/05 03:38:25;;;;;;;24.10;12.13;;;;;;;15.30;78.44;100924.36;126339;1098;104133;-78
2021/09/05 03:41:17;;;;;;;22.63;11.33;;;;;;;15.32;78.52;100929.68;126258;1099;104233;-78
2021/09/05 03:44:07;;;;;;;22.37;10.97;;;;;;;15.32;78.30;100937.61;126297;1099;104150;-79
2021/09/05 03:46:57;;;;;;;25.17;11.77;;;;;;;15.34;78.31;100936.80;126279;1098;104643;-77
2021/09/05 03:49:46;;;;;;;23.13;11.47;;;;;;;15.36;78.21;100945.65;126374;1099;104195;-78
2021/09/05 03:52:21;;;;;;;23.23;11.43;;;;;;;15.37;78.42;100943.92;126294;1098;104227;-78
2021/09/05 03:54:52;;;;;;;23.85;11.50;;;;;;;15.39;78.95;100951.02;126231;1099;104441;-78
2021/09/05 03:57:23;;;;;;;23.30;11.03;;;;;;;15.42;78.70;100953.73;126271;1099;104187;-76
2021/09/05 03:59:55;;;;;;;22.90;11.40;;;;;;;15.42;77.92;100956.38;126283;1099;104149;-77
2021/09/05 04:02:26;;;;;;;22.13;11.07;;;;;;;15.42;78.28;100961.66;126240;1099;104146;-77
2021/09/05 04:04:58;;;;;;;23.20;11.20;;;;;;;15.42;78.13;100959.02;126363;1099;102007;-77
2021/09/05 04:07:31;;;;;;;23.03;10.83;;;;;;;15.45;78.28;100956.44;126317;1099;104267;-78
2021/09/05 04:10:11;;;;;;;22.97;12.23;;;;;;;15.50;79.18;100960.95;126317;1099;104220;-77
2021/09/05 04:12:44;;;;;;;22.73;12.20;;;;;;;15.49;79.37;100968.01;126289;1099;104242;-78
2021/09/05 04:15:15;;;;;;;23.50;11.43;;;;;;;15.42;78.66;100966.95;126325;1099;104666;-77
2021/09/05 04:17:47;;;;;;;21.33;10.87;;;;;;;15.39;79.43;100969.52;126356;1099;104287;-77
2021/09/05 04:20:18;;;;;;;23.57;11.03;;;;;;;15.38;79.15;100975.69;126320;1099;104216;-78
2021/09/05 04:22:50;;;;;;;21.80;11.17;;;;;;;15.39;78.28;100972.16;126328;1099;104217;-77
2021/09/05 04:25:21;;;;;;;24.00;10.63;;;;;;;15.40;78.65;100970.44;126317;1098;104152;-77
2021/09/05 04:27:52;;;;;;;21.43;11.00;;;;;;;15.41;79.27;100974.84;126278;1099;104288;-78
2021/09/05 04:30:23;;;;;;;20.87;10.40;;;;;;;15.43;78.48;100974.03;126317;1099;104140;-78
2021/09/05 04:32:53;;;;;;;21.57;9.90;;;;;;;15.44;78.63;100983.77;126312;1099;104255;-78
2021/09/05 04:35:24;;;;;;;23.13;10.90;;;;;;;15.47;78.93;100988.22;126371;1099;104220;-78
2021/09/05 04:37:56;;;;;;;23.70;10.67;;;;;;;15.48;79.19;100991.77;126274;1099;104251;-77
2021/09/05 04:40:27;;;;;;;23.67;11.27;;;;;;;15.51;78.54;100994.49;126368;1099;104259;-78
2021/09/05 04:42:58;;;;;;;22.03;10.57;;;;;;;15.53;78.56;100995.41;126314;1099;104156;-78
2021/09/05 04:45:29;;;;;;;22.67;9.67;;;;;;;15.54;78.55;100995.45;126322;1099;104143;-78
2021/09/05 04:48:00;;;;;;;22.83;11.00;;;;;;;15.57;79.00;101002.57;126365;1099;104152;-77
2021/09/05 04:50:31;;;;;;;20.77;10.30;;;;;;;15.58;78.45;101009.63;126334;1099;104226;-78
2021/09/05 04:53:01;;;;;;;23.70;11.00;;;;;;;15.63;78.75;101005.36;126310;1099;104153;-77
2021/09/05 04:55:32;;;;;;;21.85;10.15;;;;;;;15.68;78.41;101008.11;126311;1099;118860;-77
2021/09/05 04:58:05;;;;;;;23.10;10.23;;;;;;;15.67;79.29;101007.20;126325;1099;104390;-78
2021/09/05 05:00:36;;;;;;;21.50;10.10;;;;;;;15.65;78.49;101016.86;126342;1099;104209;-78
2021/09/05 05:03:07;;;;;;;27.27;10.23;;;;;;;15.64;78.32;101018.62;126305;1099;104248;-79
2021/09/05 05:05:39;;;;;;;21.40;9.90;;;;;;;15.67;78.89;101025.71;126199;1099;104300;-78
2021/09/05 05:08:10;;;;;;;21.30;9.93;;;;;;;15.67;78.23;101028.36;126325;1099;104242;-77
2021/09/05 05:10:42;;;;;;;24.73;10.03;;;;;;;15.63;78.77;101023.87;126292;1099;104210;-77
2021/09/05 05:13:13;;;;;;;23.27;9.90;;;;;;;15.62;78.08;101032.66;126312;1099;104142;-77
2021/09/05 05:15:47;;;;;;;20.97;9.83;;;;;;;15.60;78.19;101031.73;126290;1099;104166;-78
2021/09/05 05:18:18;;;;;;;22.67;10.07;;;;;;;15.57;78.25;101036.95;126311;1099;104166;-78
2021/09/05 05:20:49;;;;;;;19.33;8.97;;;;;;;15.56;78.07;101040.45;126281;1099;104243;-77
2021/09/05 05:23:21;;;;;;;22.60;9.37;;;;;;;15.55;78.46;101041.30;126340;1099;104366;-78
2021/09/05 05:25:51;;;;;;;21.30;9.57;;;;;;;15.53;78.22;101041.25;126321;1099;104142;-77
2021/09/05 05:28:22;;;;;;;21.97;9.50;;;;;;;15.54;78.38;101047.46;126293;1099;104163;-78
2021/09/05 05:30:55;;;;;;;23.63;9.40;;;;;;;15.56;78.04;101048.38;126357;1099;104251;-77
2021/09/05 05:33:27;;;;;;;24.77;10.07;;;;;;;15.59;77.26;101051.10;126322;1099;104143;-78
2021/09/05 05:35:58;;;;;;;24.63;9.70;;;;;;;15.62;77.35;101048.53;126228;1099;104219;-76
2021/09/05 05:38:30;;;;;;;27.43;9.53;;;;;;;15.66;77.21;101052.12;126339;1099;104290;-77
2021/09/05 05:41:01;;;;;;;23.93;8.70;;;;;;;15.73;77.25;101062.89;126309;1099;104152;-78
2021/09/05 05:43:33;;;;;;;22.97;9.50;;;;;;;15.79;77.39;101062.19;126349;1099;104669;-77
2021/09/05 05:46:04;;;;;;;20.70;9.03;;;;;;;15.84;76.95;101065.83;126308;1099;104230;-77
2021/09/05 05:48:35;;;;;;;21.70;8.85;;;;;;;15.84;76.96;101071.13;126333;1099;104226;-77
2021/09/05 05:51:06;;;;;;;21.23;9.30;;;;;;;15.83;76.60;101071.97;126345;1099;104258;-77
2021/09/05 05:53:36;;;;;;;18.90;8.60;;;;;;;15.77;76.86;101078.03;126307;1099;104171;-77
2021/09/05 05:56:09;;;;;;;21.97;9.07;;;;;;;15.70;76.09;101073.41;126293;1099;104246;-77
2021/09/05 05:58:42;;;;;;;20.97;8.30;;;;;;;15.63;75.77;101082.07;126379;1099;104287;-76
2021/09/05 06:01:13;;;;;;;19.07;8.43;;;;;;;15.57;74.77;101087.21;126291;1099;104159;-77
2021/09/05 06:03:47;;;;;;;20.48;8.20;;;;;;;15.56;74.39;101091.59;126313;1099;104192;-77
2021/09/05 06:06:20;;;;;;;24.13;8.80;;;;;;;15.53;74.42;101088.86;126270;1099;104166;-77
2021/09/05 06:08:51;;;;;;;22.50;8.20;;;;;;;15.50;75.12;101090.55;126319;1099;104160;-77
2021/09/05 06:11:23;;;;;;;22.87;8.47;;;;;;;15.48;74.26;101102.85;126371;1099;104249;-76
2021/09/05 06:13:54;;;;;;;21.97;8.50;;;;;;;15.46;75.44;101095.76;126325;1099;104201;-78
2021/09/05 06:16:27;;;;;;;19.70;8.03;;;;;;;15.45;74.62;101103.66;126268;1099;104270;-77
2021/09/05 06:18:59;;;;;;;23.33;8.60;;;;;;;15.41;74.89;101113.27;126335;1099;104149;-78
2021/09/05 06:21:31;;;;;;;20.47;8.30;;;;;;;15.38;74.44;101121.13;126361;1099;104278;-80
2021/09/05 06:24:02;;;;;;;19.87;8.37;;;;;;;15.30;74.19;101117.36;126326;1099;104152;-78
2021/09/05 06:26:32;;;;;;;18.27;7.47;;;;;;;15.27;74.57;101125.25;126238;1099;104149;-78
2021/09/05 06:29:03;;;;;;;19.93;8.10;;;;;;;15.23;73.22;101124.25;126355;1099;104136;-78
2021/09/05 06:31:36;;;;;;;18.77;7.23;;;;;;;15.24;74.30;101128.69;126351;1099;104226;-78
2021/09/05 06:34:08;;;;;;;19.47;7.83;;;;;;;15.26;73.37;101126.09;126344;1099;104146;-78
2021/09/05 06:36:40;;;;;;;20.87;8.30;;;;;;;15.30;73.83;101132.34;126169;1098;104197;-79
2021/09/05 06:39:10;;;;;;;22.20;8.33;;;;;;;15.35;73.55;101136.91;126305;1099;104153;-78
2021/09/05 06:41:41;;;;;;;18.73;7.97;;;;;;;15.38;73.04;101136.98;126350;1098;104140;-77
2021/09/05 06:44:12;;;;;;;22.87;8.47;;;;;;;15.46;73.52;101137.19;126288;1099;104166;-78
2021/09/05 06:46:44;;;;;;;20.30;8.10;;;;;;;15.57;72.95;101143.64;126298;1099;104149;-77
2021/09/05 06:49:19;;;;;;;20.90;7.50;;;;;;;15.64;71.53;101142.95;126320;1099;104197;-78
2021/09/05 06:51:50;;;;;;;18.63;7.17;;;;;;;15.72;71.28;101139.59;126289;1099;104181;-79
2021/09/05 06:54:22;;;;;;;20.20;7.80;;;;;;;15.81;71.63;101139.84;126342;1099;104141;-77
2021/09/05 06:56:53;;;;;;;23.30;8.33;;;;;;;15.90;71.05;101142.72;126306;1099;104150;-77
2021/09/05 06:59:24;;;;;;;20.47;7.90;;;;;;;16.01;72.26;101144.74;126305;1099;104205;-77
2021/09/05 07:01:55;;;;;;;22.53;7.47;;;;;;;16.09;71.33;101146.69;126275;1099;104220;-78
2021/09/05 07:04:29;;;;;;;16.70;6.77;;;;;;;16.18;71.73;101146.91;126336;1099;104143;-78
2021/09/05 07:07:01;;;;;;;20.07;7.53;;;;;;;16.33;71.18;101148.11;126291;1099;104216;-78
2021/09/05 07:09:33;;;;;;;18.40;6.97;;;;;;;16.46;70.21;101155.48;126311;1099;104143;-78
2021/09/05 07:12:05;;;;;;;17.17;7.20;;;;;;;16.60;70.26;101149.59;126291;1099;104363;-78
2021/09/05 07:14:37;;;;;;;18.93;7.03;;;;;;;16.69;69.43;101158.63;126335;1098;104221;-76
2021/09/05 07:17:07;;;;;;;17.10;6.47;;;;;;;16.81;69.71;101149.13;126191;1099;104355;-78
2021/09/05 07:19:39;;;;;;;16.50;6.67;;;;;;;16.91;68.91;101153.80;126310;1099;104181;-78
2021/09/05 07:22:10;;;;;;;18.43;6.10;;;;;;;16.97;68.76;101156.58;126336;1099;104165;-76
2021/09/05 07:24:41;;;;;;;15.43;5.50;;;;;;;17.09;68.30;101155.91;126297;1099;104241;-77
2021/09/05 07:27:12;;;;;;;15.00;5.43;;;;;;;17.15;67.17;101161.33;126274;1099;104351;-77
2021/09/05 07:29:42;;;;;;;12.43;4.90;;;;;;;17.24;65.01;101150.02;126301;1099;104392;-79
2021/09/05 07:32:14;;;;;;;13.07;5.23;;;;;;;17.38;63.54;101155.58;126272;1099;104166;-78
2021/09/05 07:34:46;;;;;;;12.93;4.87;;;;;;;17.48;64.82;101165.47;126295;1099;104217;-77
2021/09/05 07:37:17;;;;;;;15.10;5.33;;;;;;;17.58;64.12;101167.44;126312;1099;104174;-78
2021/09/05 07:39:48;;;;;;;12.07;5.20;;;;;;;17.72;64.06;101169.45;126339;1099;104146;-78
2021/09/05 07:42:27;;;;;;;13.95;5.10;;;;;;;17.76;61.75;101173.92;126313;1099;104338;-78
2021/09/05 07:44:58;;;;;;;12.47;4.93;;;;;;;17.84;61.72;101171.39;126304;1099;104192;-77
2021/09/05 07:47:29;;;;;;;12.07;4.60;;;;;;;17.94;61.42;101166.30;126279;1098;104235;-77
2021/09/05 07:49:59;;;;;;;13.80;4.57;;;;;;;18.00;59.45;101173.48;126325;1099;104188;-78
2021/09/05 07:52:30;;;;;;;9.50;4.03;;;;;;;18.07;57.60;101177.11;126384;1098;104152;-77
2021/09/05 07:55:02;;;;;;;12.17;4.83;;;;;;;18.16;58.38;101176.37;126320;1099;104133;-78
2021/09/05 07:57:34;;;;;;;12.37;5.20;;;;;;;18.22;58.07;101177.35;126302;1099;104153;-79
2021/09/05 08:00:06;;;;;;;11.50;4.40;;;;;;;18.27;56.20;101186.27;126337;1099;104217;-78
2021/09/05 08:02:44;;;;;;;13.63;4.50;;;;;;;18.33;56.93;101183.71;126397;1099;105309;-78
2021/09/05 08:05:15;;;;;;;11.30;4.67;;;;;;;18.44;56.88;101185.64;126346;1099;104217;-79
2021/09/05 08:07:49;;;;;;;11.97;4.70;;;;;;;18.55;56.64;101186.67;126255;1099;104255;-77
2021/09/05 08:10:20;;;;;;;11.00;4.33;;;;;;;18.60;57.21;101190.28;126377;1099;104146;-78
2021/09/05 08:12:52;;;;;;;12.87;4.93;;;;;;;18.64;54.93;101194.78;126340;1099;104236;-78
2021/09/05 08:15:23;;;;;;;10.17;4.07;;;;;;;18.60;54.05;101192.94;126375;1099;104187;-77
2021/09/05 08:17:56;;;;;;;8.33;3.80;;;;;;;18.59;52.59;101193.83;126322;1099;104294;-78
2021/09/05 08:20:27;;;;;;;12.63;4.17;;;;;;;18.73;52.93;101195.77;126338;1099;104248;-78
2021/09/05 08:22:58;;;;;;;9.63;3.70;;;;;;;18.80;53.29;101197.64;126328;1099;104162;-77
2021/09/05 08:25:29;;;;;;;7.23;3.40;;;;;;;18.79;49.63;101187.88;126348;1099;104160;-77
2021/09/05 08:28:00;;;;;;;8.13;3.83;;;;;;;18.81;52.96;101195.01;126308;1099;104143;-77
2021/09/05 08:30:31;;;;;;;9.03;3.70;;;;;;;18.78;49.99;101194.08;126358;1098;104257;-78
2021/09/05 08:33:02;;;;;;;9.77;3.30;;;;;;;18.84;50.47;101195.08;126282;1099;104162;-77
2021/09/05 08:35:34;;;;;;;8.97;3.60;;;;;;;18.94;51.66;101195.20;126346;1099;104130;-77
2021/09/05 08:38:08;;;;;;;8.27;3.23;;;;;;;18.96;49.93;101199.64;126291;1099;104136;-77
2021/09/05 08:40:43;;;;;;;6.43;3.40;;;;;;;19.02;49.68;101183.76;126358;1099;104166;-78
2021/09/05 08:43:15;;;;;;;7.10;3.30;;;;;;;19.17;50.55;101198.13;126335;1099;104168;-77
2021/09/05 08:45:46;;;;;;;6.83;3.40;;;;;;;19.26;50.12;101187.60;126327;1099;104357;-78
2021/09/05 08:48:20;;;;;;;7.37;3.20;;;;;;;19.27;48.45;101186.70;126313;1099;104147;-79
2021/09/05 08:50:54;;;;;;;8.90;2.93;;;;;;;19.25;44.16;101185.80;126395;1099;104207;-78
2021/09/05 08:53:25;;;;;;;5.53;2.70;;;;;;;19.30;45.95;101188.52;126338;1099;104185;-78
2021/09/05 08:55:56;;;;;;;6.43;2.70;;;;;;;19.37;47.22;101177.95;126319;1099;104136;-77
2021/09/05 08:58:27;;;;;;;7.73;2.80;;;;;;;19.44;47.00;101175.36;126290;1098;104322;-77
2021/09/05 09:00:58;;;;;;;6.67;3.10;;;;;;;19.44;47.25;101175.36;126388;1099;104155;-79
2021/09/05 09:03:29;;;;;;;6.47;3.20;;;;;;;19.46;46.81;101174.51;126335;1099;104150;-77
2021/09/05 09:06:02;;;;;;;5.77;2.57;;;;;;;19.36;41.66;101184.14;126278;1099;104219;-78
2021/09/05 09:08:33;;;;;;;7.83;3.07;;;;;;;19.36;44.81;101175.28;126289;1099;104149;-78
2021/09/05 09:11:04;;;;;;;6.27;2.80;;;;;;;19.39;45.10;101176.19;126354;1099;104150;-78
2021/09/05 09:13:37;;;;;;;6.70;2.70;;;;;;;19.50;45.29;101175.42;126284;1099;104296;-78
2021/09/05 09:16:10;;;;;;;7.87;3.60;;;;;;;19.52;44.77;101173.66;126314;1099;104162;-77
2021/09/05 09:18:44;;;;;;;5.83;2.70;;;;;;;19.56;44.28;101175.48;126252;1097;104149;-77
2021/09/05 09:21:20;;;;;;;7.77;2.80;;;;;;;19.59;41.39;101180.83;126327;1099;104290;-78
2021/09/05 09:23:51;;;;;;;6.60;2.70;;;;;;;19.55;40.62;101186.99;126310;1099;104360;-77
2021/09/05 09:26:22;;;;;;;9.87;3.40;;;;;;;19.53;42.20;101180.77;126337;1098;104149;-78
2021/09/05 09:28:56;;;;;;;5.77;2.77;;;;;;;19.59;43.37;101172.84;126288;1099;104249;-79
2021/09/05 09:31:28;;;;;;;6.93;2.80;;;;;;;19.71;43.27;101180.95;126334;1099;104246;-78
2021/09/05 09:34:03;;;;;;;8.37;3.23;;;;;;;19.75;41.98;101179.19;125423;1099;104300;-77
2021/09/05 09:36:33;;;;;;;7.00;3.10;;;;;;;19.84;41.83;101191.74;126335;1099;104287;-77
2021/09/05 09:39:10;;;;;;;8.13;3.00;;;;;;;19.84;39.18;101189.08;126276;1099;104137;-77
2021/09/05 09:41:43;;;;;;;8.60;2.97;;;;;;;19.82;40.44;101194.39;126315;1099;104165;-77
2021/09/05 09:44:17;;;;;;;7.63;3.10;;;;;;;19.75;40.98;101188.06;126314;1099;104242;-77
2021/09/05 09:46:48;;;;;;;5.28;2.95;;;;;;;19.79;40.70;101186.37;126334;1099;104159;-80
2021/09/05 09:49:19;;;;;;;8.70;3.17;;;;;;;19.85;40.36;101196.16;126265;1099;104149;-77
2021/09/05 09:52:00;;;;;;;9.33;3.03;;;;;;;19.88;38.87;101190.87;126304;1099;104143;-78
2021/09/05 09:54:36;;;;;;;5.13;2.70;;;;;;;19.91;39.15;101188.23;126319;1099;104195;-77
2021/09/05 09:57:08;;;;;;;7.10;3.13;;;;;;;19.85;37.16;101191.75;126339;1098;104217;-77
2021/09/05 09:59:40;;;;;;;8.00;3.00;;;;;;;19.86;36.48;101192.64;126329;1099;104238;-76
2021/09/05 10:02:19;;;;;;;11.28;2.98;;;;;;;19.84;37.20;101197.06;126300;1099;104214;-77
2021/09/05 10:04:52;;;;;;;6.30;2.80;;;;;;;19.91;38.00;101191.80;126388;1099;104239;-78
2021/09/05 10:07:24;;;;;;;7.10;3.00;;;;;;;19.99;37.18;101196.28;126308;1099;104259;-77
2021/09/05 10:09:55;;;;;;;7.35;2.72;;;;;;;20.10;38.40;101195.50;126309;1099;104146;-80
2021/09/05 10:12:27;;;;;;;8.27;3.10;;;;;;;20.25;38.48;101197.36;126288;1098;104232;-76
2021/09/05 10:15:00;;;;;;;7.80;3.30;;;;;;;20.30;36.12;101210.72;126313;1099;104197;-78
2021/09/05 10:17:31;;;;;;;8.28;2.92;;;;;;;20.17;36.40;101192.88;126379;1099;105114;-79
2021/09/05 10:20:03;;;;;;;8.37;3.30;;;;;;;20.19;35.63;101199.10;126290;1099;104149;-77
2021/09/05 10:22:34;;;;;;;5.83;2.83;;;;;;;20.16;36.04;101201.74;126350;1099;105668;-79
2021/09/05 10:25:08;;;;;;;8.90;3.33;;;;;;;20.19;36.95;101196.44;126303;1099;104153;-78
2021/09/05 10:27:49;;;;;;;6.37;2.97;;;;;;;20.25;36.85;101205.36;126292;1099;104297;-78
2021/09/05 10:30:22;;;;;;;5.27;2.60;;;;;;;20.24;35.91;101206.27;126289;1099;104246;-77
2021/09/05 10:32:56;;;;;;;7.35;2.60;;;;;;;20.31;35.91;101209.85;126330;1099;104241;-78
2021/09/05 10:35:32;;;;;;;7.78;3.08;;;;;;;20.39;35.86;101205.45;126332;1099;104176;-79
2021/09/05 10:38:23;;;;;;;5.47;2.60;;;;;;;20.33;32.28;101205.41;126324;1099;104363;-77
2021/09/05 10:40:56;;;;;;;4.77;2.30;;;;;;;20.35;31.80;101209.00;126256;1099;104331;-76
2021/09/05 10:44:01;;;;;;;6.30;2.42;;;;;;;20.33;34.63;101212.53;126368;1099;104617;-77
2021/09/05 10:46:36;;;;;;;4.97;2.30;;;;;;;20.39;34.10;101216.11;125592;1099;104227;-77
2021/09/05 10:49:09;;;;;;;5.07;2.30;;;;;;;20.48;35.55;101212.63;125956;1099;104325;-78
2021/09/05 10:51:46;;;;;;;5.90;2.33;;;;;;;20.50;34.95;101216.19;126304;1099;104149;-77
2021/09/05 10:54:25;;;;;;;4.53;2.43;;;;;;;20.44;34.81;101205.48;126281;1099;104219;-78
2021/09/05 10:56:58;;;;;;;3.73;2.20;;;;;;;20.40;34.57;101214.36;126334;1099;104156;-78
2021/09/05 10:59:36;;;;;;;3.33;2.00;;;;;;;20.39;34.24;101218.78;125666;1099;104178;-77
2021/09/05 11:02:09;;;;;;;5.00;2.10;;;;;;;20.46;34.83;101209.95;125621;1099;104255;-78
2021/09/05 11:04:46;;;;;;;5.83;2.03;;;;;;;20.58;34.51;101195.78;125297;1099;104206;-77
2021/09/05 11:07:33;;;;;;;2.93;2.10;;;;;;;20.54;34.36;101201.12;126312;1099;104149;-77
2021/09/05 11:10:04;;;;;;;3.53;1.90;;;;;;;20.51;33.39;101211.77;126343;1099;104280;-77
2021/09/05 11:12:40;;;;;;;4.07;2.20;;;;;;;20.47;34.19;101201.09;126232;1099;104156;-78
2021/09/05 11:15:17;;;;;;;2.60;1.90;;;;;;;20.35;32.91;101208.09;126332;1099;104150;-78
2021/09/05 11:17:59;;;;;;;5.17;2.33;;;;;;;20.42;33.95;101202.81;126325;1099;104156;-77
2021/09/05 11:20:44;;;;;;;2.57;1.70;;;;;;;20.38;34.41;101205.45;126324;1099;104329;-78
2021/09/05 11:23:16;;;;;;;2.27;1.75;;;;;;;20.31;32.82;101209.85;126301;1099;104242;-77
2021/09/05 11:25:49;;;;;;;4.10;2.15;;;;;;;20.22;32.83;101201.79;126306;1099;104194;-77
2021/09/05 11:28:19;;;;;;;4.10;2.10;;;;;;;20.27;32.49;101219.61;126331;1099;104160;-78
2021/09/05 11:30:57;;;;;;;3.73;1.83;;;;;;;20.32;32.23;101200.98;126345;1099;105216;-78
2021/09/05 11:33:30;;;;;;;4.77;1.90;;;;;;;20.41;32.62;101195.72;126239;1099;108271;-78
2021/09/05 11:36:07;;;;;;;2.77;2.00;;;;;;;20.40;31.72;101204.58;126361;1099;104147;-78
2021/09/05 11:38:42;;;;;;;2.37;1.87;;;;;;;20.40;32.16;101198.38;126343;1099;104141;-78